Time;durP1;ratioP1;P1;durP2;ratioP2;P2;SDS_P1;SDS_P2;PMS_P1;PMS_P2;Temp;Humidity;BMP_temperature;BMP_pressure;BME280_temperature;BME280_humidity;BME280_pressure;Samples;Min_cycle;Max_cycle;Signal;HPM_P1;HPM_P2
2023/01/06 00:01:26;;;;;;;11.63;2.15;;;;;;;3.71;100.00;101627.31;5074967;28;20195;-45
2023/01/06 00:03:54;;;;;;;10.35;2.20;;;;;;;3.71;100.00;101632.59;5081014;28;20194;-44
2023/01/06 00:06:26;;;;;;;6.70;1.85;;;;;;;3.69;100.00;101626.41;5076001;28;20190;-45
2023/01/06 00:08:56;;;;;;;6.70;2.33;;;;;;;3.68;100.00;101640.56;5078041;28;20190;-46
2023/01/06 00:11:22;;;;;;;9.43;2.80;;;;;;;3.67;100.00;101625.56;5078113;28;20179;-44
2023/01/06 00:13:48;;;;;;;4.82;2.05;;;;;;;3.69;100.00;101621.09;5075246;28;20220;-45
2023/01/06 00:16:16;;;;;;;8.18;2.30;;;;;;;3.65;100.00;101599.91;5079539;28;20178;-45
2023/01/06 00:18:42;;;;;;;9.10;3.10;;;;;;;3.63;100.00;101615.81;5083844;28;20268;-46
2023/01/06 00:21:08;;;;;;;17.15;2.85;;;;;;;3.62;100.00;101592.84;5077626;28;20676;-44
2023/01/06 00:23:34;;;;;;;9.90;2.97;;;;;;;3.57;100.00;101607.84;5078720;28;20278;-44
2023/01/06 00:26:01;;;;;;;6.47;2.75;;;;;;;3.55;100.00;101600.78;5074065;28;20587;-45
2023/01/06 00:28:26;;;;;;;8.85;2.85;;;;;;;3.55;100.00;101595.47;5078549;28;20259;-43
2023/01/06 00:30:52;;;;;;;15.13;3.28;;;;;;;3.56;100.00;101586.63;5076202;28;20210;-45
2023/01/06 00:33:18;;;;;;;14.40;3.70;;;;;;;3.58;100.00;101596.34;5073962;28;20198;-45
2023/01/06 00:35:43;;;;;;;11.40;3.60;;;;;;;3.57;100.00;101585.78;5079801;28;20185;-44
2023/01/06 00:38:09;;;;;;;11.93;3.67;;;;;;;3.57;100.00;101578.69;5079457;28;20198;-43
2023/01/06 00:40:36;;;;;;;9.20;3.72;;;;;;;3.63;100.00;101575.16;5074496;28;20201;-44
2023/01/06 00:43:01;;;;;;;11.65;4.00;;;;;;;3.63;100.00;101572.50;5077833;28;20769;-47
2023/01/06 00:45:27;;;;;;;12.05;4.28;;;;;;;3.64;100.00;101566.34;5079846;28;20285;-47
2023/01/06 00:47:52;;;;;;;11.07;4.32;;;;;;;3.66;100.00;101564.59;5074726;28;20209;-46
2023/01/06 00:50:18;;;;;;;10.80;4.63;;;;;;;3.67;100.00;101559.31;5079177;28;20173;-45
2023/01/06 00:52:43;;;;;;;8.70;4.45;;;;;;;3.68;100.00;101560.19;5075838;28;20269;-46
2023/01/06 00:55:09;;;;;;;15.73;5.15;;;;;;;3.70;100.00;101551.34;5076747;28;20206;-45
2023/01/06 00:57:34;;;;;;;10.10;5.03;;;;;;;3.71;100.00;101557.53;5081214;28;20170;-44
2023/01/06 01:00:00;;;;;;;15.35;5.53;;;;;;;3.71;100.00;101542.50;5075108;28;20632;-44
2023/01/06 01:02:25;;;;;;;14.02;5.18;;;;;;;3.74;100.00;101538.09;5077785;28;20317;-47
2023/01/06 01:04:51;;;;;;;13.63;5.38;;;;;;;3.77;100.00;101549.59;5075147;28;20218;-46
2023/01/06 01:07:16;;;;;;;14.02;5.85;;;;;;;3.77;100.00;101546.06;5075636;28;20648;-45
2023/01/06 01:09:42;;;;;;;19.27;6.28;;;;;;;3.78;100.00;101531.91;5084965;28;20609;-46
2023/01/06 01:12:10;;;;;;;13.63;5.78;;;;;;;3.81;100.00;101530.16;5071791;28;20581;-45
2023/01/06 01:14:48;;;;;;;9.65;5.28;;;;;;;3.82;100.00;101537.22;5080348;28;20194;-46
2023/01/06 01:17:22;;;;;;;14.73;5.80;;;;;;;3.84;100.00;101518.66;5077766;28;20280;-44
2023/01/06 01:19:49;;;;;;;11.73;5.55;;;;;;;3.84;100.00;101521.31;5077412;28;20167;-47
2023/01/06 01:22:15;;;;;;;13.68;5.82;;;;;;;3.87;100.00;101526.59;5077011;28;20178;-44
2023/01/06 01:24:41;;;;;;;11.85;6.07;;;;;;;3.87;100.00;101518.66;5080315;28;20198;-44
2023/01/06 01:27:07;;;;;;;12.70;5.95;;;;;;;3.88;100.00;101526.63;5074476;28;20225;-44
2023/01/06 01:29:33;;;;;;;14.30;6.15;;;;;;;3.92;100.00;101524.88;5079245;28;20237;-47
2023/01/06 01:31:59;;;;;;;15.60;6.60;;;;;;;3.89;100.00;101517.78;5077765;28;20186;-46
2023/01/06 01:34:26;;;;;;;12.85;6.22;;;;;;;3.94;100.00;101514.28;5075398;28;20187;-46
2023/01/06 01:36:53;;;;;;;15.02;6.07;;;;;;;3.95;100.00;101511.59;5079354;28;20253;-46
2023/01/06 01:39:21;;;;;;;16.13;6.68;;;;;;;3.95;100.00;101514.25;5074935;28;20624;-45
2023/01/06 01:41:47;;;;;;;9.23;6.10;;;;;;;3.95;100.00;101503.63;5079903;28;20256;-44
2023/01/06 01:44:50;;;;;;;12.80;5.75;;;;;;;3.97;100.00;101507.19;5077697;28;20230;-46
2023/01/06 01:47:34;;;;;;;11.63;6.07;;;;;;;3.98;100.00;101506.31;5081413;28;20177;-45
2023/01/06 01:50:09;;;;;;;13.57;6.35;;;;;;;3.99;100.00;101496.59;5080398;28;20473;-47
2023/01/06 01:52:35;;;;;;;13.77;6.32;;;;;;;4.01;100.00;101498.34;5089225;28;20276;-46
2023/01/06 01:55:02;;;;;;;11.65;6.40;;;;;;;4.03;100.00;101487.75;5076858;28;20280;-46
2023/01/06 01:57:41;;;;;;;13.57;6.60;;;;;;;4.03;100.00;101485.97;5074287;28;20221;-47
2023/01/06 02:00:08;;;;;;;14.20;6.85;;;;;;;4.06;100.00;101485.06;5074151;28;20190;-46
2023/01/06 02:02:40;;;;;;;16.17;6.00;;;;;;;4.08;100.00;101488.63;5077995;28;20194;-45
2023/01/06 02:05:06;;;;;;;11.98;7.18;;;;;;;4.09;100.00;101479.78;5071851;28;20293;-47
2023/01/06 02:07:32;;;;;;;11.43;7.50;;;;;;;4.11;100.00;101476.25;5080885;28;20574;-45
2023/01/06 02:10:13;;;;;;;14.10;7.28;;;;;;;4.11;100.00;101462.09;5078438;28;20261;-46
2023/01/06 02:12:40;;;;;;;16.45;6.88;;;;;;;4.15;100.00;101462.97;5077105;28;20287;-46
2023/01/06 02:15:20;;;;;;;8.80;7.28;;;;;;;4.16;100.00;101457.69;5078820;28;20721;-47
2023/01/06 02:18:13;;;;;;;13.43;7.18;;;;;;;4.20;100.00;101453.22;5077002;28;20177;-45
2023/01/06 02:21:19;;;;;;;14.77;7.15;;;;;;;4.23;100.00;101451.47;5070333;28;20195;-45
2023/01/06 02:24:09;;;;;;;8.45;6.95;;;;;;;4.25;100.00;101438.22;5051439;28;20218;-44
2023/01/06 02:27:11;;;;;;;14.52;7.78;;;;;;;4.28;100.00;101446.16;5085083;28;20310;-46
2023/01/06 02:29:38;;;;;;;11.13;7.65;;;;;;;4.29;100.00;101437.31;5012871;28;20181;-46
2023/01/06 02:32:06;;;;;;;15.65;7.85;;;;;;;4.31;100.00;101435.53;5072907;28;20191;-48
2023/01/06 02:34:32;;;;;;;14.25;7.60;;;;;;;4.34;100.00;101431.09;5078521;28;20197;-47
2023/01/06 02:37:35;;;;;;;13.18;7.53;;;;;;;4.35;100.00;101424.00;5081916;28;20187;-48
2023/01/06 02:40:19;;;;;;;12.63;7.50;;;;;;;4.37;100.00;101416.06;5078754;28;20221;-46
2023/01/06 02:43:00;;;;;;;13.82;8.00;;;;;;;4.39;100.00;101412.50;5080202;28;20254;-47
2023/01/06 02:45:27;;;;;;;17.77;7.75;;;;;;;4.39;100.00;101407.19;5081624;28;20178;-46
2023/01/06 02:48:10;;;;;;;10.85;7.20;;;;;;;4.43;100.00;101406.31;5085856;28;20182;-46
2023/01/06 02:50:43;;;;;;;13.55;9.35;;;;;;;4.42;100.00;101401.91;5086195;28;20175;-46
2023/01/06 02:53:31;;;;;;;10.80;8.00;;;;;;;4.45;100.00;101395.69;5084112;28;20194;-46
2023/01/06 02:55:58;;;;;;;10.13;7.68;;;;;;;4.47;100.00;101388.63;5084644;28;20552;-48
2023/01/06 02:58:57;;;;;;;11.18;7.03;;;;;;;4.51;100.00;101385.94;5080910;28;20210;-47
2023/01/06 03:01:31;;;;;;;11.13;7.53;;;;;;;4.53;100.00;101400.09;5083471;28;20297;-46
2023/01/06 03:04:03;;;;;;;11.48;7.38;;;;;;;4.56;100.00;101398.31;5077373;28;20344;-43
2023/01/06 03:06:31;;;;;;;8.07;6.40;;;;;;;4.57;100.00;101393.00;5071720;28;20163;-42
2023/01/06 03:08:59;;;;;;;8.82;6.30;;;;;;;4.59;100.00;101382.34;5071335;28;20178;-46
2023/01/06 03:11:27;;;;;;;9.35;6.40;;;;;;;4.61;100.00;101378.81;5071353;28;20209;-43
2023/01/06 03:14:11;;;;;;;6.90;6.22;;;;;;;4.64;100.00;101362.00;5072686;28;20191;-43
2023/01/06 03:16:37;;;;;;;6.85;6.15;;;;;;;4.66;100.00;101366.41;5071000;28;20573;-43
2023/01/06 03:19:03;;;;;;;9.07;6.18;;;;;;;4.68;100.00;101367.28;5073045;28;20167;-45
2023/01/06 03:21:34;;;;;;;7.30;5.80;;;;;;;4.68;100.00;101361.97;5072565;28;20210;-45
2023/01/06 03:24:00;;;;;;;7.15;5.90;;;;;;;4.70;100.00;101354.88;5070933;28;20202;-46
2023/01/06 03:26:27;;;;;;;6.90;6.28;;;;;;;4.73;100.00;101354.88;5072096;28;20258;-46
2023/01/06 03:28:53;;;;;;;7.22;6.47;;;;;;;4.77;100.00;101345.13;5070877;28;20528;-43
2023/01/06 03:31:34;;;;;;;10.13;6.45;;;;;;;4.82;100.00;101347.75;5071033;28;20182;-43
2023/01/06 03:34:11;;;;;;;8.00;6.40;;;;;;;4.83;100.00;101350.41;5071079;28;20194;-42
2023/01/06 03:37:00;;;;;;;9.05;7.38;;;;;;;4.87;100.00;101330.00;5072271;28;20197;-43
2023/01/06 03:39:37;;;;;;;10.40;7.55;;;;;;;4.88;100.00;101331.78;5060328;28;20290;-43
2023/01/06 03:45:49;;;;;;;9.10;8.20;;;;;;;4.89;100.00;101326.44;5071455;28;20677;-43
2023/01/06 03:48:29;;;;;;;12.00;8.70;;;;;;;4.94;100.00;101323.75;5071790;28;20186;-47
2023/01/06 03:51:33;;;;;;;12.10;9.35;;;;;;;4.95;100.00;101325.53;5072039;28;20190;-42
2023/01/06 03:54:19;;;;;;;12.05;9.20;;;;;;;4.96;100.00;101316.66;5070520;28;20255;-48
2023/01/06 03:56:53;;;;;;;14.40;9.10;;;;;;;5.00;100.00;101320.19;5070592;28;20202;-43
2023/01/06 03:59:27;;;;;;;13.50;8.77;;;;;;;5.03;100.00;101314.84;5070800;28;20387;-41
2023/01/06 04:01:53;;;;;;;13.52;9.40;;;;;;;5.04;100.00;101301.56;5071610;28;20557;-43
2023/01/06 04:04:20;;;;;;;12.65;9.38;;;;;;;5.06;100.00;101305.06;5070515;28;20730;-44
2023/01/06 04:06:46;;;;;;;12.85;9.68;;;;;;;5.12;100.00;101301.50;5071730;28;20167;-43
2023/01/06 04:09:12;;;;;;;12.52;10.00;;;;;;;5.15;100.00;101301.47;5070103;28;20167;-44
2023/01/06 04:14:22;;;;;;;13.32;9.88;;;;;;;5.16;100.00;101289.97;5069873;28;20732;-44
2023/01/06 04:16:49;;;;;;;15.07;8.98;;;;;;;5.16;100.00;101284.66;5070200;28;20174;-44
2023/01/06 04:19:14;;;;;;;14.23;9.82;;;;;;;5.18;100.00;101282.84;5069212;28;20555;-45
2023/01/06 04:21:41;;;;;;;13.38;11.15;;;;;;;5.19;100.00;101274.00;5069497;28;20218;-43
2023/01/06 04:24:07;;;;;;;14.70;11.00;;;;;;;5.20;100.00;101278.38;5069814;28;20297;-43
2023/01/06 04:26:34;;;;;;;17.02;11.38;;;;;;;5.24;100.00;101273.94;5069730;28;20183;-50
2023/01/06 04:29:01;;;;;;;14.95;10.75;;;;;;;5.25;100.00;101260.66;5068788;28;20175;-42
2023/01/06 04:31:27;;;;;;;15.48;10.45;;;;;;;5.26;100.00;101254.44;5069781;28;20641;-44
2023/01/06 04:33:53;;;;;;;14.18;10.70;;;;;;;5.28;100.00;101260.63;5069592;28;20719;-45
2023/01/06 04:36:21;;;;;;;13.82;10.32;;;;;;;5.29;100.00;101266.81;5071071;28;20252;-44
2023/01/06 04:38:51;;;;;;;15.13;10.07;;;;;;;5.32;100.00;101248.19;5069506;28;20193;-44
2023/01/06 04:41:16;;;;;;;17.48;10.20;;;;;;;5.32;100.00;101248.19;5070697;28;20807;-42
2023/01/06 04:43:42;;;;;;;13.68;9.68;;;;;;;5.32;100.00;101253.50;5070969;28;20269;-42
2023/01/06 04:46:08;;;;;;;14.00;10.40;;;;;;;5.36;100.00;101244.63;5086191;28;20175;-48
2023/01/06 04:48:33;;;;;;;14.40;10.65;;;;;;;5.37;100.00;101223.31;5070943;28;20212;-45
2023/01/06 04:51:01;;;;;;;13.48;10.05;;;;;;;5.39;100.00;101225.97;5071129;28;20173;-44
2023/01/06 04:53:26;;;;;;;17.08;10.18;;;;;;;5.40;100.00;101234.81;5070634;28;20186;-42
2023/01/06 04:55:52;;;;;;;13.50;10.45;;;;;;;5.45;100.00;101228.56;5070833;28;20182;-44
2023/01/06 04:58:17;;;;;;;14.32;11.07;;;;;;;5.46;100.00;101224.13;5069771;28;20664;-44
2023/01/06 05:00:43;;;;;;;13.38;10.27;;;;;;;5.45;100.00;101204.66;5078312;28;20271;-42
2023/01/06 05:03:08;;;;;;;14.93;10.60;;;;;;;5.52;100.00;101213.44;5091078;28;20649;-46
2023/01/06 05:05:34;;;;;;;14.02;9.80;;;;;;;5.54;100.00;101207.19;5090588;28;20685;-49
2023/01/06 05:07:59;;;;;;;14.88;9.65;;;;;;;5.55;100.00;101210.72;5091029;28;20858;-43
2023/01/06 05:10:25;;;;;;;12.27;9.75;;;;;;;5.55;100.00;101182.41;5090918;28;20247;-44
2023/01/06 05:12:50;;;;;;;11.52;8.85;;;;;;;5.55;100.00;101192.13;5090642;28;20173;-47
2023/01/06 05:15:16;;;;;;;13.13;9.02;;;;;;;5.60;100.00;101190.31;5090904;28;20186;-43
2023/01/06 05:17:41;;;;;;;14.15;9.32;;;;;;;5.59;100.00;101185.88;5090432;28;20158;-42
2023/01/06 05:20:07;;;;;;;14.68;10.13;;;;;;;5.63;100.00;101178.75;5090715;28;20162;-45
2023/01/06 05:22:33;;;;;;;14.25;10.05;;;;;;;5.63;100.00;101169.00;5090771;28;20176;-44
2023/01/06 05:24:58;;;;;;;11.18;9.57;;;;;;;5.67;100.00;101169.84;5090658;28;20616;-44
2023/01/06 05:27:24;;;;;;;13.65;10.43;;;;;;;5.70;100.00;101153.84;5090698;28;20222;-43
2023/01/06 05:29:49;;;;;;;13.20;9.98;;;;;;;5.75;100.00;101165.28;5089419;28;20192;-43
2023/01/06 05:32:15;;;;;;;13.15;10.15;;;;;;;5.74;100.00;101159.09;5090525;28;20242;-43
2023/01/06 05:34:41;;;;;;;14.98;10.65;;;;;;;5.77;100.00;101153.75;5089307;28;20260;-44
2023/01/06 05:37:06;;;;;;;13.50;10.52;;;;;;;5.81;100.00;101156.38;5090476;28;20161;-43
2023/01/06 05:39:32;;;;;;;16.75;11.52;;;;;;;5.85;100.00;101147.44;5090320;28;20613;-45
2023/01/06 05:41:57;;;;;;;14.90;11.18;;;;;;;5.83;100.00;101150.13;5090482;28;20198;-44
2023/01/06 05:44:22;;;;;;;16.95;12.57;;;;;;;5.86;100.00;101150.09;5090153;28;20268;-45
2023/01/06 05:46:48;;;;;;;19.90;12.85;;;;;;;5.91;100.00;101152.69;5088865;28;20166;-45
2023/01/06 05:49:14;;;;;;;17.17;11.48;;;;;;;5.90;100.00;101161.56;5090377;28;20162;-48
2023/01/06 05:51:39;;;;;;;21.42;12.73;;;;;;;5.96;100.00;101150.88;5090427;28;20862;-45
2023/01/06 05:54:08;;;;;;;21.60;13.70;;;;;;;5.96;100.00;101153.53;5090461;28;20271;-44
2023/01/06 05:56:34;;;;;;;24.27;14.90;;;;;;;6.00;100.00;101149.06;5089987;28;20174;-44
2023/01/06 05:59:00;;;;;;;20.60;14.38;;;;;;;6.03;100.00;101141.91;5089027;28;20176;-43
2023/01/06 06:01:30;;;;;;;23.48;14.73;;;;;;;6.04;100.00;101141.00;5090268;28;20289;-42
2023/01/06 06:03:56;;;;;;;25.08;15.93;;;;;;;6.06;100.00;101125.91;5089982;28;20579;-44
2023/01/06 06:06:24;;;;;;;24.42;15.77;;;;;;;6.15;100.00;101124.91;5090546;28;20558;-45
2023/01/06 06:08:50;;;;;;;31.80;17.60;;;;;;;6.23;100.00;101120.34;5092676;28;20249;-44
2023/01/06 06:11:18;;;;;;;31.55;18.10;;;;;;;6.23;100.00;101122.09;5094207;28;20240;-44
2023/01/06 06:13:48;;;;;;;34.58;18.70;;;;;;;6.32;100.00;101124.59;5094286;28;20201;-44
2023/01/06 06:16:16;;;;;;;34.05;19.85;;;;;;;6.31;100.00;101113.09;5094049;28;20204;-43
2023/01/06 06:18:42;;;;;;;37.30;21.25;;;;;;;6.36;100.00;101115.69;5094171;28;20593;-44
2023/01/06 06:21:13;;;;;;;39.88;21.52;;;;;;;6.38;100.00;101111.22;5094150;28;20642;-44
2023/01/06 06:23:40;;;;;;;45.38;22.17;;;;;;;6.48;100.00;101111.97;5093843;28;20185;-45
2023/01/06 06:26:06;;;;;;;40.13;21.48;;;;;;;6.48;100.00;101114.63;5094179;28;20252;-45
2023/01/06 06:28:33;;;;;;;41.70;23.42;;;;;;;6.52;100.00;101119.00;5093805;28;20632;-43
2023/01/06 06:31:22;;;;;;;40.92;22.08;;;;;;;6.57;100.00;101107.34;5093915;28;20154;-43
2023/01/06 06:33:52;;;;;;;48.95;24.88;;;;;;;6.60;100.00;101106.41;5094082;28;20704;-45
2023/01/06 06:36:18;;;;;;;43.08;24.70;;;;;;;6.61;100.00;101100.19;5093600;28;20197;-48
2023/01/06 06:38:46;;;;;;;55.95;27.00;;;;;;;6.67;100.00;101101.84;5093718;28;20258;-47
2023/01/06 06:41:12;;;;;;;55.97;26.70;;;;;;;6.72;100.00;101098.22;5093797;28;20196;-43
2023/01/06 06:43:38;;;;;;;51.33;27.08;;;;;;;6.77;100.00;101103.44;5087807;28;20198;-45
2023/01/06 06:46:04;;;;;;;56.38;27.27;;;;;;;6.78;100.00;101102.56;5073395;28;20484;-45
2023/01/06 06:48:29;;;;;;;58.65;27.73;;;;;;;6.83;100.00;101097.16;5071860;28;20213;-45
2023/01/06 06:51:04;;;;;;;56.38;26.65;;;;;;;6.90;100.00;101104.97;5086370;28;20223;-45
2023/01/06 06:53:31;;;;;;;56.45;26.77;;;;;;;6.87;100.00;101096.19;5075064;28;20190;-44
2023/01/06 06:55:57;;;;;;;57.80;27.45;;;;;;;6.94;100.00;101104.00;5073155;28;20583;-47
2023/01/06 06:58:23;;;;;;;59.65;28.15;;;;;;;6.97;100.00;101098.63;5072831;28;20163;-42
2023/01/06 07:00:48;;;;;;;64.80;29.27;;;;;;;7.01;100.00;101092.31;5073003;28;20187;-44
2023/01/06 07:03:14;;;;;;;64.60;29.15;;;;;;;7.07;100.00;101088.69;5072969;28;20285;-42
2023/01/06 07:05:44;;;;;;;64.80;28.58;;;;;;;7.11;100.00;101079.72;5073218;28;20636;-45
2023/01/06 07:08:11;;;;;;;64.97;28.75;;;;;;;7.19;100.00;101067.13;5072788;28;20167;-41
2023/01/06 07:10:37;;;;;;;64.75;29.55;;;;;;;7.23;100.00;101065.25;5073055;28;20171;-45
2023/01/06 07:13:03;;;;;;;59.42;30.05;;;;;;;7.28;100.00;101050.06;5073064;28;20788;-42
2023/01/06 07:15:28;;;;;;;61.22;29.25;;;;;;;7.27;100.00;101044.75;5072852;28;20182;-43
2023/01/06 07:17:54;;;;;;;55.08;27.58;;;;;;;7.40;100.00;101049.78;5072838;28;20660;-45
2023/01/06 07:20:19;;;;;;;59.33;29.75;;;;;;;7.39;100.00;101045.38;5071195;28;20186;-42
2023/01/06 07:22:45;;;;;;;55.28;27.80;;;;;;;7.42;100.00;101039.97;5081967;28;20666;-43
2023/01/06 07:25:10;;;;;;;54.20;26.58;;;;;;;7.54;100.00;101043.28;5090567;28;20197;-43
2023/01/06 07:27:36;;;;;;;53.97;28.17;;;;;;;7.49;100.00;101040.72;5096152;28;20171;-41
2023/01/06 07:30:04;;;;;;;58.95;29.08;;;;;;;7.50;100.00;101033.59;5080563;28;20170;-42
2023/01/06 07:32:29;;;;;;;51.58;27.92;;;;;;;7.57;100.00;101021.91;5089667;28;20173;-43
2023/01/06 07:34:55;;;;;;;57.25;29.15;;;;;;;7.60;100.00;101011.16;5081588;28;20190;-44
2023/01/06 07:37:21;;;;;;;54.42;27.88;;;;;;;7.59;100.00;101025.41;5081712;28;20211;-42
2023/01/06 07:39:46;;;;;;;52.88;28.70;;;;;;;7.60;100.00;101025.34;5079040;28;20552;-44
2023/01/06 07:42:12;;;;;;;52.65;27.08;;;;;;;7.61;100.00;101023.59;5088624;28;20197;-44
2023/01/06 07:44:38;;;;;;;53.78;29.70;;;;;;;7.64;100.00;101018.16;5088713;28;20195;-46
2023/01/06 07:47:03;;;;;;;51.10;27.92;;;;;;;7.64;100.00;101023.50;5081586;28;20168;-43
2023/01/06 07:49:29;;;;;;;53.13;28.75;;;;;;;7.64;100.00;101023.50;5079484;28;20240;-41
2023/01/06 07:51:54;;;;;;;52.20;29.23;;;;;;;7.70;100.00;101012.69;5086342;28;20239;-44
2023/01/06 07:54:20;;;;;;;56.08;29.25;;;;;;;7.68;100.00;101010.97;5074809;28;20202;-42
2023/01/06 07:56:46;;;;;;;50.25;30.30;;;;;;;7.68;100.00;101002.97;5073543;28;20186;-41
2023/01/06 07:59:11;;;;;;;53.13;30.52;;;;;;;7.64;100.00;101005.69;5079461;28;20526;-42
2023/01/06 08:01:37;;;;;;;50.10;30.17;;;;;;;7.68;100.00;100997.66;5080843;28;20300;-41
2023/01/06 08:04:03;;;;;;;54.05;31.52;;;;;;;7.68;100.00;101001.19;5076130;28;20300;-45
2023/01/06 08:06:28;;;;;;;56.38;31.92;;;;;;;7.71;100.00;100997.56;5085780;28;20214;-43
2023/01/06 08:08:54;;;;;;;57.63;33.50;;;;;;;7.75;100.00;100989.44;5072841;28;20198;-41
2023/01/06 08:11:19;;;;;;;57.15;31.65;;;;;;;7.69;100.00;100981.59;5073320;28;20167;-43
2023/01/06 08:13:45;;;;;;;49.35;31.98;;;;;;;7.75;100.00;100984.13;5083664;28;20221;-43
2023/01/06 08:16:11;;;;;;;58.75;33.33;;;;;;;7.75;100.00;100967.25;5075151;28;20170;-44
2023/01/06 08:18:38;;;;;;;51.92;31.63;;;;;;;7.79;100.00;100985.81;5080664;28;20170;-44
2023/01/06 08:21:06;;;;;;;50.38;32.72;;;;;;;7.79;100.00;100985.81;5078154;28;20201;-44
2023/01/06 08:23:33;;;;;;;54.85;32.08;;;;;;;7.76;100.00;100979.66;5082688;28;20296;-42
2023/01/06 08:26:08;;;;;;;48.85;31.10;;;;;;;7.80;100.00;100984.00;5087381;28;20173;-42
2023/01/06 08:28:34;;;;;;;45.83;30.42;;;;;;;7.77;100.00;100971.63;5076423;28;20656;-43
2023/01/06 08:31:01;;;;;;;49.05;30.38;;;;;;;7.77;100.00;100976.97;5080037;28;20166;-44
2023/01/06 08:33:27;;;;;;;45.70;29.50;;;;;;;7.81;100.00;100978.63;5087566;28;20190;-44
2023/01/06 08:36:01;;;;;;;44.97;29.73;;;;;;;7.78;100.00;100975.16;5076424;28;20186;-43
2023/01/06 08:38:28;;;;;;;46.10;29.60;;;;;;;7.80;100.00;100968.00;5069595;28;20185;-45
2023/01/06 08:40:54;;;;;;;41.72;29.55;;;;;;;7.78;100.00;100967.16;5079764;28;20339;-44
2023/01/06 08:43:19;;;;;;;42.40;28.88;;;;;;;7.75;100.00;100960.13;5082598;28;20578;-42
2023/01/06 08:45:45;;;;;;;41.45;28.70;;;;;;;7.78;100.00;100961.81;5076846;28;20215;-43
2023/01/06 08:48:10;;;;;;;39.92;28.40;;;;;;;7.79;100.00;100969.78;5074040;28;20232;-43
2023/01/06 08:50:40;;;;;;;43.65;29.52;;;;;;;7.80;100.00;100968.00;5088332;28;20162;-43
2023/01/06 08:53:06;;;;;;;39.95;29.20;;;;;;;7.80;100.00;100966.19;5082233;28;20320;-41
2023/01/06 08:55:32;;;;;;;43.92;28.60;;;;;;;7.82;100.00;100953.69;5074319;28;20215;-41
2023/01/06 08:57:58;;;;;;;38.28;28.50;;;;;;;7.83;100.00;100952.81;5076628;28;20690;-42
2023/01/06 09:00:23;;;;;;;38.67;27.35;;;;;;;7.84;100.00;100959.88;5069608;28;20209;-45
2023/01/06 09:02:49;;;;;;;34.50;26.92;;;;;;;7.89;100.00;100965.09;5088073;28;20538;-48
2023/01/06 09:05:15;;;;;;;37.55;27.42;;;;;;;7.90;100.00;100955.31;5076625;28;20552;-47
2023/01/06 09:07:40;;;;;;;37.25;27.88;;;;;;;7.93;100.00;100947.22;5078212;28;20202;-47
2023/01/06 09:10:07;;;;;;;35.88;27.35;;;;;;;7.92;100.00;100961.50;5080101;28;20178;-46
2023/01/06 09:12:32;;;;;;;34.75;26.73;;;;;;;7.88;100.00;100958.03;5078228;28;20183;-45
2023/01/06 09:14:58;;;;;;;31.95;25.38;;;;;;;7.95;100.00;100958.75;5077623;28;20233;-46
2023/01/06 09:17:24;;;;;;;34.53;26.05;;;;;;;7.92;100.00;100957.03;5074926;28;20178;-48
2023/01/06 09:19:49;;;;;;;32.80;25.38;;;;;;;7.94;100.00;100954.34;5077127;28;20209;-47
2023/01/06 09:22:15;;;;;;;30.42;24.48;;;;;;;7.91;100.00;100941.06;5076842;28;20209;-46
2023/01/06 09:24:40;;;;;;;34.75;24.77;;;;;;;7.92;100.00;100935.69;5077624;28;20212;-46
2023/01/06 09:27:06;;;;;;;32.80;24.70;;;;;;;7.94;100.00;100933.00;5077011;28;20182;-47
2023/01/06 09:29:31;;;;;;;27.45;23.30;;;;;;;7.96;100.00;100939.13;5077257;28;20563;-47
2023/01/06 09:31:57;;;;;;;29.85;23.38;;;;;;;7.99;100.00;100944.41;5078147;28;20185;-46
2023/01/06 09:34:22;;;;;;;25.08;21.35;;;;;;;7.98;100.00;100943.53;5058613;28;20206;-47
2023/01/06 09:36:48;;;;;;;26.70;20.90;;;;;;;7.98;100.00;100939.97;5077618;28;20227;-47
2023/01/06 09:39:13;;;;;;;24.95;21.27;;;;;;;8.00;100.00;100938.16;5077793;28;20236;-46
2023/01/06 09:41:51;;;;;;;26.17;21.55;;;;;;;7.98;100.00;100948.88;5075412;28;20613;-47
2023/01/06 09:44:21;;;;;;;24.05;19.98;;;;;;;8.00;100.00;100943.47;5076695;28;20301;-47
2023/01/06 09:46:50;;;;;;;24.38;20.65;;;;;;;7.97;100.00;100947.13;5078659;28;20177;-47
2023/01/06 09:49:43;;;;;;;23.90;19.83;;;;;;;7.97;100.00;100951.56;5072153;28;20174;-45
2023/01/06 09:52:24;;;;;;;20.50;17.75;;;;;;;7.95;100.00;100943.59;5084085;28;20186;-47
2023/01/06 09:54:56;;;;;;;18.75;16.50;;;;;;;8.03;100.00;100940.75;5076359;28;20213;-47
2023/01/06 09:57:27;;;;;;;21.17;16.90;;;;;;;8.03;100.00;100962.09;5079294;28;20193;-45
2023/01/06 10:00:02;;;;;;;18.20;16.08;;;;;;;8.03;100.00;100946.97;5077830;28;20236;-48
2023/01/06 10:02:39;;;;;;;14.10;12.57;;;;;;;8.08;100.00;100975.31;5079410;28;20194;-45
2023/01/06 10:05:45;;;;;;;13.13;11.82;;;;;;;8.11;100.00;100970.78;5076725;28;20330;-46
2023/01/06 10:08:32;;;;;;;10.63;9.23;;;;;;;8.08;100.00;100978.84;5077046;28;20573;-45
2023/01/06 10:11:11;;;;;;;9.88;8.60;;;;;;;8.15;100.00;100985.78;5077076;28;20174;-46
2023/01/06 10:14:17;;;;;;;8.30;7.30;;;;;;;8.11;100.00;101007.25;5076242;28;20209;-44
2023/01/06 10:17:14;;;;;;;8.20;6.55;;;;;;;8.10;100.00;100993.03;5077976;28;20220;-46
2023/01/06 10:20:05;;;;;;;7.50;5.97;;;;;;;8.12;100.00;100999.22;5077824;28;20566;-47
2023/01/06 10:22:42;;;;;;;6.32;5.50;;;;;;;8.08;100.00;101005.53;5075754;28;20171;-48
2023/01/06 10:25:11;;;;;;;9.70;5.22;;;;;;;8.09;100.00;101009.09;5079052;28;20197;-47
2023/01/06 10:27:40;;;;;;;8.75;3.90;;;;;;;8.08;100.00;101010.88;5065627;28;20170;-46
2023/01/06 10:30:24;;;;;;;5.00;3.45;;;;;;;7.99;100.00;101019.13;5075880;28;20655;-46
2023/01/06 10:32:50;;;;;;;4.80;3.08;;;;;;;7.98;100.00;101028.94;5078057;28;20171;-47
2023/01/06 10:35:17;;;;;;;4.80;2.20;;;;;;;8.08;100.00;101034.03;5073003;28;20191;-44
2023/01/06 10:37:48;;;;;;;4.18;2.33;;;;;;;7.94;100.00;101031.72;5076882;28;20182;-44
2023/01/06 10:40:20;;;;;;;5.63;1.70;;;;;;;7.98;100.00;101025.34;5072832;28;20190;-46
2023/01/06 10:42:56;;;;;;;6.53;1.90;;;;;;;7.89;100.00;101028.25;5057234;28;20778;-45
2023/01/06 10:45:36;;;;;;;7.85;1.95;;;;;;;7.81;100.00;101026.66;5077908;28;20183;-49
2023/01/06 10:48:04;;;;;;;5.35;1.58;;;;;;;7.80;100.00;101032.00;5076781;28;20174;-44
2023/01/06 10:50:32;;;;;;;6.72;1.70;;;;;;;7.79;100.00;101046.28;5077264;28;20283;-42
2023/01/06 10:52:58;;;;;;;7.30;1.50;;;;;;;7.68;100.00;101035.00;5075906;28;20182;-43
2023/01/06 10:55:51;;;;;;;9.88;2.55;;;;;;;7.73;100.00;101039.28;5078963;28;20182;-43
2023/01/06 10:58:44;;;;;;;4.30;1.30;;;;;;;7.76;100.00;101028.56;5074595;28;20174;-43
2023/01/06 11:01:21;;;;;;;7.38;1.65;;;;;;;7.72;100.00;101025.97;5064078;28;21136;-46
2023/01/06 11:04:06;;;;;;;7.80;1.85;;;;;;;7.77;100.00;101034.75;5080978;28;20617;-46
2023/01/06 11:06:33;;;;;;;5.18;1.50;;;;;;;7.72;100.00;101028.63;5082199;28;20176;-48
2023/01/06 11:09:06;;;;;;;6.57;1.77;;;;;;;7.88;100.00;101018.50;5081193;28;20190;-48
2023/01/06 11:11:32;;;;;;;6.43;1.90;;;;;;;7.80;100.00;101018.69;5080263;28;20177;-46
2023/01/06 11:14:01;;;;;;;9.18;1.80;;;;;;;7.83;100.00;101019.50;5080686;28;20213;-46
2023/01/06 11:16:33;;;;;;;12.55;2.10;;;;;;;7.81;100.00;101026.66;5078540;28;20698;-47
2023/01/06 11:19:07;;;;;;;8.57;1.75;;;;;;;7.83;100.00;101024.81;5077271;28;20247;-48
2023/01/06 11:21:45;;;;;;;8.02;1.35;;;;;;;7.79;100.00;101020.47;5075298;28;20577;-48
2023/01/06 11:24:17;;;;;;;12.05;1.83;;;;;;;7.76;100.00;101017.00;5080436;28;20263;-47
2023/01/06 11:26:52;;;;;;;14.85;2.45;;;;;;;7.77;100.00;101022.31;5082623;28;20632;-47
2023/01/06 11:29:25;;;;;;;7.28;1.52;;;;;;;7.70;100.00;101023.38;5084537;28;20194;-46
2023/01/06 11:31:50;;;;;;;14.57;2.33;;;;;;;7.71;100.00;101025.09;5080405;28;20284;-47
2023/01/06 11:34:22;;;;;;;9.38;1.70;;;;;;;7.70;100.00;101023.38;5080055;28;20289;-45